sensor_id;sensor_type;location;lat;lon;timestamp;temperature;humidity
418;DHT22;49;48.530;9.200;2022-11-20T00:01:33;11.80;55.70
418;DHT22;49;48.530;9.200;2022-11-20T00:04:00;11.70;62.50
418;DHT22;49;48.530;9.200;2022-11-20T00:06:29;11.70;62.90
418;DHT22;49;48.530;9.200;2022-11-20T00:08:58;11.30;62.60
418;DHT22;49;48.530;9.200;2022-11-20T00:11:26;11.20;61.50
418;DHT22;49;48.530;9.200;2022-11-20T00:13:56;11.40;66.40
418;DHT22;49;48.530;9.200;2022-11-20T00:16:25;11.80;59.10
418;DHT22;49;48.530;9.200;2022-11-20T00:18:53;11.70;64.60
418;DHT22;49;48.530;9.200;2022-11-20T00:21:22;11.60;67.60
418;DHT22;49;48.530;9.200;2022-11-20T00:23:51;11.60;64.60
418;DHT22;49;48.530;9.200;2022-11-20T00:26:20;11.80;61.90
418;DHT22;49;48.530;9.200;2022-11-20T00:28:50;12.10;68.20
418;DHT22;49;48.530;9.200;2022-11-20T00:31:18;12.40;64.30
418;DHT22;49;48.530;9.200;2022-11-20T00:33:45;12.60;64.70
418;DHT22;49;48.530;9.200;2022-11-20T00:36:14;12.60;60.10
418;DHT22;49;48.530;9.200;2022-11-20T00:38:42;12.30;63.60
418;DHT22;49;48.530;9.200;2022-11-20T00:41:13;11.90;59.30
418;DHT22;49;48.530;9.200;2022-11-20T00:43:40;12.00;63.30
418;DHT22;49;48.530;9.200;2022-11-20T00:46:08;12.00;60.70
418;DHT22;49;48.530;9.200;2022-11-20T00:48:38;12.00;58.00
418;DHT22;49;48.530;9.200;2022-11-20T00:51:05;12.10;69.20
418;DHT22;49;48.530;9.200;2022-11-20T00:53:32;12.30;57.30
418;DHT22;49;48.530;9.200;2022-11-20T00:56:01;12.40;56.80
418;DHT22;49;48.530;9.200;2022-11-20T00:58:32;12.30;66.10
418;DHT22;49;48.530;9.200;2022-11-20T01:01:04;12.30;73.20
418;DHT22;49;48.530;9.200;2022-11-20T01:03:31;12.40;61.20
418;DHT22;49;48.530;9.200;2022-11-20T01:06:03;12.20;55.00
418;DHT22;49;48.530;9.200;2022-11-20T01:08:31;12.10;69.30
418;DHT22;49;48.530;9.200;2022-11-20T01:10:59;12.20;64.50
418;DHT22;49;48.530;9.200;2022-11-20T01:13:27;12.20;59.70
418;DHT22;49;48.530;9.200;2022-11-20T01:16:10;12.70;79.10
418;DHT22;49;48.530;9.200;2022-11-20T01:18:38;13.20;67.70
418;DHT22;49;48.530;9.200;2022-11-20T01:21:08;13.10;71.30
418;DHT22;49;48.530;9.200;2022-11-20T01:23:37;12.60;59.20
418;DHT22;49;48.530;9.200;2022-11-20T01:26:07;12.50;61.60
418;DHT22;49;48.530;9.200;2022-11-20T01:28:35;12.30;67.00
418;DHT22;49;48.530;9.200;2022-11-20T01:31:12;12.50;62.60
418;DHT22;49;48.530;9.200;2022-11-20T01:33:40;12.60;56.20
418;DHT22;49;48.530;9.200;2022-11-20T01:36:08;12.60;73.00
418;DHT22;49;48.530;9.200;2022-11-20T01:38:36;12.70;58.80
418;DHT22;49;48.530;9.200;2022-11-20T01:41:04;12.80;73.00
418;DHT22;49;48.530;9.200;2022-11-20T01:43:32;12.70;71.40
418;DHT22;49;48.530;9.200;2022-11-20T01:46:04;12.80;56.30
418;DHT22;49;48.530;9.200;2022-11-20T01:48:40;13.00;67.30
418;DHT22;49;48.530;9.200;2022-11-20T01:51:17;12.80;59.60
418;DHT22;49;48.530;9.200;2022-11-20T01:53:46;12.40;54.40
418;DHT22;49;48.530;9.200;2022-11-20T01:56:14;11.70;55.90
418;DHT22;49;48.530;9.200;2022-11-20T01:58:45;11.30;68.10
418;DHT22;49;48.530;9.200;2022-11-20T02:01:15;11.10;68.50
418;DHT22;49;48.530;9.200;2022-11-20T02:03:43;11.30;67.50
418;DHT22;49;48.530;9.200;2022-11-20T02:06:17;10.90;64.70
418;DHT22;49;48.530;9.200;2022-11-20T02:08:46;10.90;63.90
418;DHT22;49;48.530;9.200;2022-11-20T02:11:14;10.40;60.40
418;DHT22;49;48.530;9.200;2022-11-20T02:13:41;10.00;82.60
418;DHT22;49;48.530;9.200;2022-11-20T02:16:16;10.30;79.50
418;DHT22;49;48.530;9.200;2022-11-20T02:18:46;10.60;63.70
418;DHT22;49;48.530;9.200;2022-11-20T02:21:23;10.40;64.20
418;DHT22;49;48.530;9.200;2022-11-20T02:24:02;10.30;71.20
418;DHT22;49;48.530;9.200;2022-11-20T02:26:32;10.40;63.60
418;DHT22;49;48.530;9.200;2022-11-20T02:29:00;10.60;76.80
418;DHT22;49;48.530;9.200;2022-11-20T02:31:35;10.20;63.30
418;DHT22;49;48.530;9.200;2022-11-20T02:34:02;10.30;68.20
418;DHT22;49;48.530;9.200;2022-11-20T02:36:32;10.10;74.50
418;DHT22;49;48.530;9.200;2022-11-20T02:39:01;10.70;72.20
418;DHT22;49;48.530;9.200;2022-11-20T02:41:33;10.80;74.50
418;DHT22;49;48.530;9.200;2022-11-20T02:44:01;10.10;71.30
418;DHT22;49;48.530;9.200;2022-11-20T02:46:29;9.90;69.20
418;DHT22;49;48.530;9.200;2022-11-20T02:48:58;9.70;78.40
418;DHT22;49;48.530;9.200;2022-11-20T02:51:28;9.60;80.10
418;DHT22;49;48.530;9.200;2022-11-20T02:54:04;9.80;78.00
418;DHT22;49;48.530;9.200;2022-11-20T02:56:31;10.00;74.50
418;DHT22;49;48.530;9.200;2022-11-20T02:58:58;10.40;67.00
418;DHT22;49;48.530;9.200;2022-11-20T03:01:28;9.90;68.40
418;DHT22;49;48.530;9.200;2022-11-20T03:03:56;10.00;70.30
418;DHT22;49;48.530;9.200;2022-11-20T03:06:23;10.10;68.50
418;DHT22;49;48.530;9.200;2022-11-20T03:08:51;9.90;70.40
418;DHT22;49;48.530;9.200;2022-11-20T03:11:21;9.70;69.70
418;DHT22;49;48.530;9.200;2022-11-20T03:13:55;9.80;70.40
418;DHT22;49;48.530;9.200;2022-11-20T03:16:24;10.00;68.20
418;DHT22;49;48.530;9.200;2022-11-20T03:18:52;9.90;67.70
418;DHT22;49;48.530;9.200;2022-11-20T03:21:19;10.00;72.40
418;DHT22;49;48.530;9.200;2022-11-20T03:23:46;10.50;70.10
418;DHT22;49;48.530;9.200;2022-11-20T03:26:16;10.60;68.60
418;DHT22;49;48.530;9.200;2022-11-20T03:28:48;10.10;70.20
418;DHT22;49;48.530;9.200;2022-11-20T03:31:18;10.00;66.80
418;DHT22;49;48.530;9.200;2022-11-20T03:33:45;10.10;65.20
418;DHT22;49;48.530;9.200;2022-11-20T03:36:14;10.10;65.00
418;DHT22;49;48.530;9.200;2022-11-20T03:38:45;10.30;65.00
418;DHT22;49;48.530;9.200;2022-11-20T03:41:13;10.50;61.90
418;DHT22;49;48.530;9.200;2022-11-20T03:43:40;10.60;63.70
418;DHT22;49;48.530;9.200;2022-11-20T03:46:09;11.00;73.20
418;DHT22;49;48.530;9.200;2022-11-20T03:48:36;11.20;71.90
418;DHT22;49;48.530;9.200;2022-11-20T03:51:07;11.40;56.90
418;DHT22;49;48.530;9.200;2022-11-20T03:53:35;11.30;58.00
418;DHT22;49;48.530;9.200;2022-11-20T03:56:02;11.60;64.60
418;DHT22;49;48.530;9.200;2022-11-20T03:58:29;11.50;54.10
418;DHT22;49;48.530;9.200;2022-11-20T04:00:57;11.30;57.50
418;DHT22;49;48.530;9.200;2022-11-20T04:06:47;11.50;56.50
418;DHT22;49;48.530;9.200;2022-11-20T04:09:14;11.60;54.00
418;DHT22;49;48.530;9.200;2022-11-20T04:11:42;11.80;52.80
418;DHT22;49;48.530;9.200;2022-11-20T04:14:13;12.10;52.80
418;DHT22;49;48.530;9.200;2022-11-20T04:16:41;12.10;56.80
418;DHT22;49;48.530;9.200;2022-11-20T04:19:11;12.00;65.90
418;DHT22;49;48.530;9.200;2022-11-20T04:21:39;12.40;50.10
418;DHT22;49;48.530;9.200;2022-11-20T04:24:11;12.30;48.80
418;DHT22;49;48.530;9.200;2022-11-20T04:26:39;11.90;55.00
418;DHT22;49;48.530;9.200;2022-11-20T04:29:09;11.80;49.30
418;DHT22;49;48.530;9.200;2022-11-20T04:31:39;11.50;53.80
418;DHT22;49;48.530;9.200;2022-11-20T04:34:11;11.40;59.20
418;DHT22;49;48.530;9.200;2022-11-20T04:36:39;11.40;55.00
418;DHT22;49;48.530;9.200;2022-11-20T04:39:12;11.00;58.00
418;DHT22;49;48.530;9.200;2022-11-20T04:41:43;10.80;56.20
418;DHT22;49;48.530;9.200;2022-11-20T04:44:14;10.90;59.40
418;DHT22;49;48.530;9.200;2022-11-20T04:46:42;10.70;56.50
418;DHT22;49;48.530;9.200;2022-11-20T04:49:11;10.60;65.00
418;DHT22;49;48.530;9.200;2022-11-20T04:51:38;10.70;59.90
418;DHT22;49;48.530;9.200;2022-11-20T04:54:05;10.90;68.30
418;DHT22;49;48.530;9.200;2022-11-20T04:56:37;11.10;62.20
418;DHT22;49;48.530;9.200;2022-11-20T04:59:05;11.20;57.00
418;DHT22;49;48.530;9.200;2022-11-20T05:01:35;11.40;55.10
418;DHT22;49;48.530;9.200;2022-11-20T05:04:03;11.30;51.10
418;DHT22;49;48.530;9.200;2022-11-20T05:06:32;11.50;64.50
418;DHT22;49;48.530;9.200;2022-11-20T05:09:02;11.60;57.60
418;DHT22;49;48.530;9.200;2022-11-20T05:11:29;11.30;63.40
418;DHT22;49;48.530;9.200;2022-11-20T05:14:00;11.00;61.50
418;DHT22;49;48.530;9.200;2022-11-20T05:16:28;11.20;53.30
418;DHT22;49;48.530;9.200;2022-11-20T05:18:57;10.80;60.10
418;DHT22;49;48.530;9.200;2022-11-20T05:21:25;10.60;54.40
418;DHT22;49;48.530;9.200;2022-11-20T05:23:53;10.90;73.80
418;DHT22;49;48.530;9.200;2022-11-20T05:26:21;11.20;61.70
418;DHT22;49;48.530;9.200;2022-11-20T05:28:49;11.00;57.40
418;DHT22;49;48.530;9.200;2022-11-20T05:31:20;10.70;62.00
418;DHT22;49;48.530;9.200;2022-11-20T05:33:49;11.10;64.10
418;DHT22;49;48.530;9.200;2022-11-20T05:36:17;11.60;61.80
418;DHT22;49;48.530;9.200;2022-11-20T05:38:44;11.20;62.40
418;DHT22;49;48.530;9.200;2022-11-20T05:41:13;11.00;59.70
418;DHT22;49;48.530;9.200;2022-11-20T05:43:46;11.40;57.20
418;DHT22;49;48.530;9.200;2022-11-20T05:46:15;11.20;55.20
418;DHT22;49;48.530;9.200;2022-11-20T05:48:46;10.90;58.70
418;DHT22;49;48.530;9.200;2022-11-20T05:51:18;11.30;54.30
418;DHT22;49;48.530;9.200;2022-11-20T05:53:45;11.20;57.30
418;DHT22;49;48.530;9.200;2022-11-20T05:56:15;11.30;57.00
418;DHT22;49;48.530;9.200;2022-11-20T05:58:43;11.20;59.20
418;DHT22;49;48.530;9.200;2022-11-20T06:01:13;11.70;53.60
418;DHT22;49;48.530;9.200;2022-11-20T06:03:41;12.00;52.70
418;DHT22;49;48.530;9.200;2022-11-20T06:06:13;11.90;50.00
418;DHT22;49;48.530;9.200;2022-11-20T06:08:41;11.10;51.10
418;DHT22;49;48.530;9.200;2022-11-20T06:11:10;10.70;62.00
418;DHT22;49;48.530;9.200;2022-11-20T06:13:40;10.20;57.10
418;DHT22;49;48.530;9.200;2022-11-20T06:16:07;9.70;67.10
418;DHT22;49;48.530;9.200;2022-11-20T06:18:34;9.90;62.50
418;DHT22;49;48.530;9.200;2022-11-20T06:21:04;9.90;67.10
418;DHT22;49;48.530;9.200;2022-11-20T06:23:34;9.90;59.80
418;DHT22;49;48.530;9.200;2022-11-20T06:26:02;10.30;67.60
418;DHT22;49;48.530;9.200;2022-11-20T06:28:29;10.60;54.90
418;DHT22;49;48.530;9.200;2022-11-20T06:30:57;10.00;66.60
418;DHT22;49;48.530;9.200;2022-11-20T06:33:24;10.00;66.50
418;DHT22;49;48.530;9.200;2022-11-20T06:35:51;10.40;61.30
418;DHT22;49;48.530;9.200;2022-11-20T06:38:18;10.80;58.00
418;DHT22;49;48.530;9.200;2022-11-20T06:40:47;10.60;58.60
418;DHT22;49;48.530;9.200;2022-11-20T06:43:14;10.90;61.90
418;DHT22;49;48.530;9.200;2022-11-20T06:45:42;11.10;51.90
418;DHT22;49;48.530;9.200;2022-11-20T06:48:09;11.20;62.60
418;DHT22;49;48.530;9.200;2022-11-20T06:50:37;10.90;53.80
418;DHT22;49;48.530;9.200;2022-11-20T06:53:05;10.70;52.50
418;DHT22;49;48.530;9.200;2022-11-20T06:55:32;10.20;55.20
418;DHT22;49;48.530;9.200;2022-11-20T06:58:01;10.40;76.90
418;DHT22;49;48.530;9.200;2022-11-20T07:00:28;10.50;52.60
418;DHT22;49;48.530;9.200;2022-11-20T07:02:55;10.30;55.10
418;DHT22;49;48.530;9.200;2022-11-20T07:05:22;10.20;55.40
418;DHT22;49;48.530;9.200;2022-11-20T07:07:49;10.30;61.00
418;DHT22;49;48.530;9.200;2022-11-20T07:10:16;10.00;59.00
418;DHT22;49;48.530;9.200;2022-11-20T07:12:49;10.40;71.90
418;DHT22;49;48.530;9.200;2022-11-20T07:15:19;10.70;51.20
418;DHT22;49;48.530;9.200;2022-11-20T07:18:00;10.70;52.60
418;DHT22;49;48.530;9.200;2022-11-20T07:20:31;10.20;63.50
418;DHT22;49;48.530;9.200;2022-11-20T07:23:01;10.40;60.10
418;DHT22;49;48.530;9.200;2022-11-20T07:25:29;10.30;58.70
418;DHT22;49;48.530;9.200;2022-11-20T07:27:57;10.40;62.30
418;DHT22;49;48.530;9.200;2022-11-20T07:30:30;10.70;54.20
418;DHT22;49;48.530;9.200;2022-11-20T07:32:58;10.90;55.00
418;DHT22;49;48.530;9.200;2022-11-20T07:35:27;11.00;55.70
418;DHT22;49;48.530;9.200;2022-11-20T07:37:54;10.90;52.90
418;DHT22;49;48.530;9.200;2022-11-20T07:40:35;10.90;62.40
418;DHT22;49;48.530;9.200;2022-11-20T07:43:03;11.30;49.10
418;DHT22;49;48.530;9.200;2022-11-20T07:45:31;10.90;52.20
418;DHT22;49;48.530;9.200;2022-11-20T07:47:58;11.30;49.90
418;DHT22;49;48.530;9.200;2022-11-20T07:50:26;11.80;54.90
418;DHT22;49;48.530;9.200;2022-11-20T07:53:01;11.90;51.20
418;DHT22;49;48.530;9.200;2022-11-20T07:55:28;11.70;47.80
418;DHT22;49;48.530;9.200;2022-11-20T07:58:04;11.30;62.50
418;DHT22;49;48.530;9.200;2022-11-20T08:00:32;11.50;55.90
418;DHT22;49;48.530;9.200;2022-11-20T08:03:03;11.80;53.10
418;DHT22;49;48.530;9.200;2022-11-20T08:05:32;12.00;49.30
418;DHT22;49;48.530;9.200;2022-11-20T08:07:59;11.90;49.60
418;DHT22;49;48.530;9.200;2022-11-20T08:10:28;12.00;50.90
418;DHT22;49;48.530;9.200;2022-11-20T08:12:55;12.00;66.60
418;DHT22;49;48.530;9.200;2022-11-20T08:15:47;11.80;48.10
418;DHT22;49;48.530;9.200;2022-11-20T08:18:14;11.50;60.10
418;DHT22;49;48.530;9.200;2022-11-20T08:20:41;11.70;50.00
418;DHT22;49;48.530;9.200;2022-11-20T08:23:08;11.70;54.40
418;DHT22;49;48.530;9.200;2022-11-20T08:25:38;11.80;52.80
418;DHT22;49;48.530;9.200;2022-11-20T08:28:18;11.50;53.10
418;DHT22;49;48.530;9.200;2022-11-20T08:34:10;11.60;48.60
418;DHT22;49;48.530;9.200;2022-11-20T08:36:38;12.10;51.50
418;DHT22;49;48.530;9.200;2022-11-20T08:39:05;12.50;58.50
418;DHT22;49;48.530;9.200;2022-11-20T08:41:33;11.70;51.00
418;DHT22;49;48.530;9.200;2022-11-20T08:44:29;11.00;63.40
418;DHT22;49;48.530;9.200;2022-11-20T08:46:56;11.20;53.70
418;DHT22;49;48.530;9.200;2022-11-20T08:49:34;11.50;58.60
418;DHT22;49;48.530;9.200;2022-11-20T08:52:15;11.70;58.10
418;DHT22;49;48.530;9.200;2022-11-20T08:54:42;12.30;51.70
418;DHT22;49;48.530;9.200;2022-11-20T08:57:23;12.20;50.10
418;DHT22;49;48.530;9.200;2022-11-20T09:00:06;12.50;54.20
418;DHT22;49;48.530;9.200;2022-11-20T09:02:47;12.10;51.50
418;DHT22;49;48.530;9.200;2022-11-20T09:05:16;12.00;50.00
418;DHT22;49;48.530;9.200;2022-11-20T09:07:43;11.60;53.00
418;DHT22;49;48.530;9.200;2022-11-20T09:10:10;11.30;54.90
418;DHT22;49;48.530;9.200;2022-11-20T09:12:37;11.30;57.40
418;DHT22;49;48.530;9.200;2022-11-20T09:15:05;11.30;60.10
418;DHT22;49;48.530;9.200;2022-11-20T09:17:34;11.80;63.70
418;DHT22;49;48.530;9.200;2022-11-20T09:20:05;12.40;54.10
418;DHT22;49;48.530;9.200;2022-11-20T09:22:39;12.60;50.40
418;DHT22;49;48.530;9.200;2022-11-20T09:25:08;12.60;55.10
418;DHT22;49;48.530;9.200;2022-11-20T09:27:35;12.80;54.30
418;DHT22;49;48.530;9.200;2022-11-20T09:30:02;12.80;47.60
418;DHT22;49;48.530;9.200;2022-11-20T09:32:31;13.30;46.00
418;DHT22;49;48.530;9.200;2022-11-20T09:35:03;13.70;47.80
418;DHT22;49;48.530;9.200;2022-11-20T09:41:26;13.70;51.80
418;DHT22;49;48.530;9.200;2022-11-20T09:44:01;13.90;50.80
418;DHT22;49;48.530;9.200;2022-11-20T09:46:40;14.20;49.30
418;DHT22;49;48.530;9.200;2022-11-20T09:49:23;14.20;49.30
418;DHT22;49;48.530;9.200;2022-11-20T09:51:58;14.10;48.50
418;DHT22;49;48.530;9.200;2022-11-20T09:54:30;14.00;53.20
418;DHT22;49;48.530;9.200;2022-11-20T09:57:03;13.50;46.30
418;DHT22;49;48.530;9.200;2022-11-20T09:59:36;12.20;51.80
418;DHT22;49;48.530;9.200;2022-11-20T10:02:16;12.10;56.60
418;DHT22;49;48.530;9.200;2022-11-20T10:04:49;12.30;69.70
418;DHT22;49;48.530;9.200;2022-11-20T10:07:40;12.40;59.00
418;DHT22;49;48.530;9.200;2022-11-20T10:10:15;13.00;56.70
418;DHT22;49;48.530;9.200;2022-11-20T10:12:57;13.10;52.00
418;DHT22;49;48.530;9.200;2022-11-20T10:15:33;12.80;51.80
418;DHT22;49;48.530;9.200;2022-11-20T10:18:22;12.80;57.30
418;DHT22;49;48.530;9.200;2022-11-20T10:20:56;12.10;59.30
418;DHT22;49;48.530;9.200;2022-11-20T10:23:44;12.10;64.00
418;DHT22;49;48.530;9.200;2022-11-20T10:26:20;12.20;57.80
418;DHT22;49;48.530;9.200;2022-11-20T10:29:13;11.90;59.50
418;DHT22;49;48.530;9.200;2022-11-20T10:31:43;11.90;61.70
418;DHT22;49;48.530;9.200;2022-11-20T10:34:20;12.10;60.40
418;DHT22;49;48.530;9.200;2022-11-20T10:36:56;12.10;58.60
418;DHT22;49;48.530;9.200;2022-11-20T10:39:35;12.10;58.90
418;DHT22;49;48.530;9.200;2022-11-20T10:42:08;11.80;59.60
418;DHT22;49;48.530;9.200;2022-11-20T10:44:42;12.10;62.60
418;DHT22;49;48.530;9.200;2022-11-20T10:47:30;11.90;58.80
418;DHT22;49;48.530;9.200;2022-11-20T10:50:04;11.60;61.90
418;DHT22;49;48.530;9.200;2022-11-20T10:52:39;11.40;64.40
418;DHT22;49;48.530;9.200;2022-11-20T10:55:23;11.10;66.90
418;DHT22;49;48.530;9.200;2022-11-20T10:58:00;11.20;67.70
418;DHT22;49;48.530;9.200;2022-11-20T11:00:32;10.70;70.40
418;DHT22;49;48.530;9.200;2022-11-20T11:02:59;11.10;75.80
418;DHT22;49;48.530;9.200;2022-11-20T11:05:34;11.50;67.30
418;DHT22;49;48.530;9.200;2022-11-20T11:08:03;11.80;64.80
418;DHT22;49;48.530;9.200;2022-11-20T11:10:39;11.80;64.80
418;DHT22;49;48.530;9.200;2022-11-20T11:13:19;11.70;64.70
418;DHT22;49;48.530;9.200;2022-11-20T11:15:49;11.70;64.70
418;DHT22;49;48.530;9.200;2022-11-20T11:18:32;11.40;66.90
418;DHT22;49;48.530;9.200;2022-11-20T11:21:03;11.30;67.80
418;DHT22;49;48.530;9.200;2022-11-20T11:23:33;10.90;70.00
418;DHT22;49;48.530;9.200;2022-11-20T11:26:02;10.90;70.30
418;DHT22;49;48.530;9.200;2022-11-20T11:28:32;11.30;70.50
418;DHT22;49;48.530;9.200;2022-11-20T11:31:01;11.20;70.90
418;DHT22;49;48.530;9.200;2022-11-20T11:33:30;11.00;70.50
418;DHT22;49;48.530;9.200;2022-11-20T11:36:00;11.20;68.40
418;DHT22;49;48.530;9.200;2022-11-20T11:38:36;11.30;69.40
418;DHT22;49;48.530;9.200;2022-11-20T11:41:10;11.80;67.70
418;DHT22;49;48.530;9.200;2022-11-20T11:43:39;12.00;64.10
418;DHT22;49;48.530;9.200;2022-11-20T11:46:34;11.60;64.60
418;DHT22;49;48.530;9.200;2022-11-20T11:49:15;11.80;64.90
418;DHT22;49;48.530;9.200;2022-11-20T11:52:00;12.00;63.30
418;DHT22;49;48.530;9.200;2022-11-20T11:54:37;12.30;59.40
418;DHT22;49;48.530;9.200;2022-11-20T11:57:12;12.00;59.20
418;DHT22;49;48.530;9.200;2022-11-20T11:59:51;12.50;55.00
418;DHT22;49;48.530;9.200;2022-11-20T12:02:34;12.50;56.30
418;DHT22;49;48.530;9.200;2022-11-20T12:05:08;11.80;60.50
418;DHT22;49;48.530;9.200;2022-11-20T12:07:43;11.70;57.90
418;DHT22;49;48.530;9.200;2022-11-20T12:10:20;12.10;59.20
418;DHT22;49;48.530;9.200;2022-11-20T12:12:51;12.70;58.00
418;DHT22;49;48.530;9.200;2022-11-20T12:15:28;12.40;54.90
418;DHT22;49;48.530;9.200;2022-11-20T12:18:00;12.60;51.90
418;DHT22;49;48.530;9.200;2022-11-20T12:20:35;11.60;53.60
418;DHT22;49;48.530;9.200;2022-11-20T12:23:12;11.60;58.80
418;DHT22;49;48.530;9.200;2022-11-20T12:25:48;11.40;59.20
418;DHT22;49;48.530;9.200;2022-11-20T12:28:31;11.80;62.50
418;DHT22;49;48.530;9.200;2022-11-20T12:31:14;12.00;56.40
418;DHT22;49;48.530;9.200;2022-11-20T12:33:58;12.20;55.50
418;DHT22;49;48.530;9.200;2022-11-20T12:36:40;12.30;54.70
418;DHT22;49;48.530;9.200;2022-11-20T12:39:36;11.60;55.30
418;DHT22;49;48.530;9.200;2022-11-20T12:42:24;11.60;58.50
418;DHT22;49;48.530;9.200;2022-11-20T12:45:31;11.50;56.30
418;DHT22;49;48.530;9.200;2022-11-20T12:48:22;11.20;64.30
418;DHT22;49;48.530;9.200;2022-11-20T12:51:16;12.20;57.60
418;DHT22;49;48.530;9.200;2022-11-20T12:53:56;12.80;47.20
418;DHT22;49;48.530;9.200;2022-11-20T12:56:35;12.60;43.50
418;DHT22;49;48.530;9.200;2022-11-20T12:59:21;12.30;48.60
418;DHT22;49;48.530;9.200;2022-11-20T13:01:53;12.40;43.80
418;DHT22;49;48.530;9.200;2022-11-20T13:04:47;13.00;46.90
418;DHT22;49;48.530;9.200;2022-11-20T13:07:20;13.20;47.50
418;DHT22;49;48.530;9.200;2022-11-20T13:09:50;12.70;43.50
418;DHT22;49;48.530;9.200;2022-11-20T13:12:23;12.20;46.40
418;DHT22;49;48.530;9.200;2022-11-20T13:14:55;12.90;54.80
418;DHT22;49;48.530;9.200;2022-11-20T13:17:30;13.30;39.90
418;DHT22;49;48.530;9.200;2022-11-20T13:20:00;12.80;46.70
418;DHT22;49;48.530;9.200;2022-11-20T13:22:43;13.20;43.00
418;DHT22;49;48.530;9.200;2022-11-20T13:25:21;13.20;40.80
418;DHT22;49;48.530;9.200;2022-11-20T13:27:54;12.80;45.10
418;DHT22;49;48.530;9.200;2022-11-20T13:30:23;13.10;43.00
418;DHT22;49;48.530;9.200;2022-11-20T13:32:54;12.60;46.70
418;DHT22;49;48.530;9.200;2022-11-20T13:35:31;12.80;52.10
418;DHT22;49;48.530;9.200;2022-11-20T13:38:03;13.50;42.80
418;DHT22;49;48.530;9.200;2022-11-20T13:40:32;13.50;44.70
418;DHT22;49;48.530;9.200;2022-11-20T13:43:28;13.40;47.80
418;DHT22;49;48.530;9.200;2022-11-20T13:46:14;13.40;39.50
418;DHT22;49;48.530;9.200;2022-11-20T13:48:44;13.20;40.80
418;DHT22;49;48.530;9.200;2022-11-20T13:51:29;13.30;43.00
418;DHT22;49;48.530;9.200;2022-11-20T14:00:57;13.90;38.50
418;DHT22;49;48.530;9.200;2022-11-20T14:04:05;14.20;45.50
418;DHT22;49;48.530;9.200;2022-11-20T14:06:40;14.50;38.90
418;DHT22;49;48.530;9.200;2022-11-20T14:09:11;14.60;39.60
418;DHT22;49;48.530;9.200;2022-11-20T14:11:46;14.30;33.40
418;DHT22;49;48.530;9.200;2022-11-20T14:14:18;14.00;35.50
418;DHT22;49;48.530;9.200;2022-11-20T14:16:47;14.30;38.80
418;DHT22;49;48.530;9.200;2022-11-20T14:19:26;12.80;35.80
418;DHT22;49;48.530;9.200;2022-11-20T14:22:07;12.40;40.30
418;DHT22;49;48.530;9.200;2022-11-20T14:24:34;12.30;42.60
418;DHT22;49;48.530;9.200;2022-11-20T14:27:02;12.30;41.50
418;DHT22;49;48.530;9.200;2022-11-20T14:29:46;12.70;40.30
418;DHT22;49;48.530;9.200;2022-11-20T14:32:17;12.80;36.20
418;DHT22;49;48.530;9.200;2022-11-20T14:34:48;12.50;39.20
418;DHT22;49;48.530;9.200;2022-11-20T14:37:21;13.00;35.30
418;DHT22;49;48.530;9.200;2022-11-20T14:39:51;13.30;36.90
418;DHT22;49;48.530;9.200;2022-11-20T14:42:21;13.30;38.00
418;DHT22;49;48.530;9.200;2022-11-20T14:44:54;13.50;39.50
418;DHT22;49;48.530;9.200;2022-11-20T14:47:23;13.90;39.00
418;DHT22;49;48.530;9.200;2022-11-20T14:49:53;13.90;34.10
418;DHT22;49;48.530;9.200;2022-11-20T14:52:22;13.90;34.50
418;DHT22;49;48.530;9.200;2022-11-20T14:54:54;13.60;41.00
418;DHT22;49;48.530;9.200;2022-11-20T14:57:24;13.60;42.20
418;DHT22;49;48.530;9.200;2022-11-20T15:00:07;13.90;53.10
418;DHT22;49;48.530;9.200;2022-11-20T15:02:39;14.20;37.80
418;DHT22;49;48.530;9.200;2022-11-20T15:05:10;14.00;34.40
418;DHT22;49;48.530;9.200;2022-11-20T15:07:39;14.00;36.70
418;DHT22;49;48.530;9.200;2022-11-20T15:10:13;14.30;37.70
418;DHT22;49;48.530;9.200;2022-11-20T15:12:48;14.20;33.20
418;DHT22;49;48.530;9.200;2022-11-20T15:15:23;14.10;34.30
418;DHT22;49;48.530;9.200;2022-11-20T15:18:01;14.00;52.30
418;DHT22;49;48.530;9.200;2022-11-20T15:20:31;14.50;39.50
418;DHT22;49;48.530;9.200;2022-11-20T15:22:58;14.70;33.00
418;DHT22;49;48.530;9.200;2022-11-20T15:25:26;14.80;45.80
418;DHT22;49;48.530;9.200;2022-11-20T15:27:55;14.20;32.10
418;DHT22;49;48.530;9.200;2022-11-20T15:30:25;13.70;38.90
418;DHT22;49;48.530;9.200;2022-11-20T15:32:52;13.70;48.40
418;DHT22;49;48.530;9.200;2022-11-20T15:35:19;14.00;47.60
418;DHT22;49;48.530;9.200;2022-11-20T15:37:47;14.30;49.60
418;DHT22;49;48.530;9.200;2022-11-20T15:40:14;14.70;51.20
418;DHT22;49;48.530;9.200;2022-11-20T15:42:41;14.80;39.80
418;DHT22;49;48.530;9.200;2022-11-20T15:45:24;14.40;32.10
418;DHT22;49;48.530;9.200;2022-11-20T15:47:51;14.00;39.10
418;DHT22;49;48.530;9.200;2022-11-20T15:50:18;14.00;38.30
418;DHT22;49;48.530;9.200;2022-11-20T15:52:46;14.30;53.50
418;DHT22;49;48.530;9.200;2022-11-20T15:55:13;14.60;48.80
418;DHT22;49;48.530;9.200;2022-11-20T15:57:40;14.50;47.20
418;DHT22;49;48.530;9.200;2022-11-20T16:00:08;14.60;43.60
418;DHT22;49;48.530;9.200;2022-11-20T16:02:37;14.90;54.00
418;DHT22;49;48.530;9.200;2022-11-20T16:05:08;15.20;46.70
418;DHT22;49;48.530;9.200;2022-11-20T16:07:36;15.00;40.40
418;DHT22;49;48.530;9.200;2022-11-20T16:10:04;14.80;39.80
418;DHT22;49;48.530;9.200;2022-11-20T16:12:31;14.70;51.50
418;DHT22;49;48.530;9.200;2022-11-20T16:15:16;14.70;49.00
418;DHT22;49;48.530;9.200;2022-11-20T16:18:02;14.60;41.50
418;DHT22;49;48.530;9.200;2022-11-20T16:20:29;14.80;53.40
418;DHT22;49;48.530;9.200;2022-11-20T16:22:56;15.30;54.40
418;DHT22;49;48.530;9.200;2022-11-20T16:25:24;15.20;39.10
418;DHT22;49;48.530;9.200;2022-11-20T16:27:51;15.40;52.10
418;DHT22;49;48.530;9.200;2022-11-20T16:30:18;15.40;44.40
418;DHT22;49;48.530;9.200;2022-11-20T16:32:45;15.40;46.80
418;DHT22;49;48.530;9.200;2022-11-20T16:35:14;15.30;40.30
418;DHT22;49;48.530;9.200;2022-11-20T16:37:41;14.90;30.70
418;DHT22;49;48.530;9.200;2022-11-20T16:40:10;13.50;35.30
418;DHT22;49;48.530;9.200;2022-11-20T16:42:37;13.00;34.30
418;DHT22;49;48.530;9.200;2022-11-20T16:45:05;12.60;38.10
418;DHT22;49;48.530;9.200;2022-11-20T16:47:33;12.00;39.00
418;DHT22;49;48.530;9.200;2022-11-20T16:50:00;12.00;51.30
418;DHT22;49;48.530;9.200;2022-11-20T16:52:29;11.90;42.20
418;DHT22;49;48.530;9.200;2022-11-20T16:54:56;12.20;40.10
418;DHT22;49;48.530;9.200;2022-11-20T16:57:24;12.30;51.30
418;DHT22;49;48.530;9.200;2022-11-20T16:59:51;12.80;41.20
418;DHT22;49;48.530;9.200;2022-11-20T17:02:18;12.90;40.60
418;DHT22;49;48.530;9.200;2022-11-20T17:04:45;13.10;36.50
418;DHT22;49;48.530;9.200;2022-11-20T17:07:12;12.70;34.80
418;DHT22;49;48.530;9.200;2022-11-20T17:09:40;12.60;44.40
418;DHT22;49;48.530;9.200;2022-11-20T17:12:07;12.80;38.70
418;DHT22;49;48.530;9.200;2022-11-20T17:14:35;12.60;43.80
418;DHT22;49;48.530;9.200;2022-11-20T17:17:02;12.90;54.30
418;DHT22;49;48.530;9.200;2022-11-20T17:19:29;13.30;40.60
418;DHT22;49;48.530;9.200;2022-11-20T17:21:56;13.50;35.30
418;DHT22;49;48.530;9.200;2022-11-20T17:24:23;13.10;31.80
418;DHT22;49;48.530;9.200;2022-11-20T17:26:52;13.20;40.10
418;DHT22;49;48.530;9.200;2022-11-20T17:29:19;13.10;38.30
418;DHT22;49;48.530;9.200;2022-11-20T17:31:49;12.90;34.80
418;DHT22;49;48.530;9.200;2022-11-20T17:34:16;12.80;45.10
418;DHT22;49;48.530;9.200;2022-11-20T17:36:44;13.10;46.50
418;DHT22;49;48.530;9.200;2022-11-20T17:39:12;13.10;32.50